Time;durP1;ratioP1;P1;durP2;ratioP2;P2;SDS_P1;SDS_P2;PMS_P1;PMS_P2;Temp;Humidity;BMP_temperature;BMP_pressure;BME280_temperature;BME280_humidity;BME280_pressure;Samples;Min_cycle;Max_cycle;Signal;HPM_P1;HPM_P2
2021/07/18 00:01:16;;;;;;;14.93;10.53;;;;;;;20.73;85.46;96363.23;1703532;83;20973;-80
2021/07/18 00:03:41;;;;;;;13.48;10.72;;;;;;;20.74;85.57;96367.47;1683980;84;20915;-79
2021/07/18 00:06:07;;;;;;;13.13;11.48;;;;;;;20.74;85.36;96374.08;1704286;83;21312;-80
2021/07/18 00:08:33;;;;;;;14.00;11.20;;;;;;;20.74;85.35;96371.95;1699466;83;21000;-80
2021/07/18 00:10:58;;;;;;;14.63;12.60;;;;;;;20.71;85.20;96374.57;1690377;83;20932;-79
2021/07/18 00:13:24;;;;;;;14.50;12.25;;;;;;;20.67;85.33;96378.75;1688311;83;20883;-80
2021/07/18 00:15:50;;;;;;;13.05;11.75;;;;;;;20.69;85.59;96391.18;1725130;82;20997;-80
2021/07/18 00:18:16;;;;;;;16.25;10.53;;;;;;;20.67;85.46;96391.43;1727000;82;21271;-80
2021/07/18 00:20:42;;;;;;;14.15;10.90;;;;;;;20.64;85.25;96392.42;1715661;82;20913;-80
2021/07/18 00:23:08;;;;;;;14.33;10.90;;;;;;;20.60;85.19;96387.36;1687171;83;21236;-80
2021/07/18 00:25:34;;;;;;;16.32;9.88;;;;;;;20.56;85.20;96381.77;1714306;82;21966;-80
2021/07/18 00:28:00;;;;;;;12.20;11.00;;;;;;;20.50;85.28;96374.84;1695121;84;20978;-80
2021/07/18 00:30:26;;;;;;;13.35;11.00;;;;;;;20.44;85.45;96386.88;1695643;84;21279;-80
2021/07/18 00:32:53;;;;;;;13.30;11.80;;;;;;;20.40;85.67;96387.86;1691896;84;21053;-80
2021/07/18 00:35:18;;;;;;;15.93;12.40;;;;;;;20.37;85.85;96392.31;1701791;84;21271;-80
2021/07/18 00:37:44;;;;;;;16.23;12.15;;;;;;;20.39;86.06;96389.70;1698663;84;21010;-80
2021/07/18 00:40:11;;;;;;;13.60;12.20;;;;;;;20.45;86.18;96391.11;1693970;84;21030;-80
2021/07/18 00:42:37;;;;;;;13.15;11.73;;;;;;;20.44;86.13;96394.27;1684595;84;20943;-80
2021/07/18 00:45:04;;;;;;;14.95;13.45;;;;;;;20.44;86.18;96408.79;1688020;84;21236;-80
2021/07/18 00:47:30;;;;;;;15.00;12.95;;;;;;;20.48;86.32;96423.09;1666675;84;21349;-80
2021/07/18 00:49:55;;;;;;;17.05;12.47;;;;;;;20.52;86.50;96431.34;1652693;85;20958;-80
2021/07/18 00:52:21;;;;;;;15.55;12.50;;;;;;;20.57;86.45;96431.41;1670939;84;21002;-79
2021/07/18 00:54:47;;;;;;;16.20;13.50;;;;;;;20.58;86.32;96431.68;1669255;84;22228;-79
2021/07/18 00:57:13;;;;;;;18.87;15.48;;;;;;;20.61;86.45;96437.27;1672043;84;20998;-80
2021/07/18 00:59:39;;;;;;;16.93;13.98;;;;;;;20.60;86.53;96446.23;1676700;84;20947;-80
2021/07/18 01:02:05;;;;;;;14.20;12.15;;;;;;;20.59;86.71;96454.39;1645918;85;20982;-79
2021/07/18 01:04:31;;;;;;;16.75;12.43;;;;;;;20.62;86.71;96459.98;1667176;84;21260;-79
2021/07/18 01:06:57;;;;;;;15.78;12.03;;;;;;;20.68;86.72;96461.67;1689284;84;20947;-80
2021/07/18 01:09:23;;;;;;;16.48;12.80;;;;;;;20.73;86.62;96464.09;1690477;83;21111;-80
2021/07/18 01:11:49;;;;;;;15.48;12.47;;;;;;;20.75;86.58;96445.64;1695716;84;20958;-79
2021/07/18 01:14:15;;;;;;;13.43;12.05;;;;;;;20.77;86.57;96432.98;1693363;84;20922;-79
2021/07/18 01:16:41;;;;;;;17.95;15.90;;;;;;;20.77;86.57;96425.06;1698593;83;20971;-80
2021/07/18 01:19:06;;;;;;;15.90;14.28;;;;;;;20.82;86.81;96423.80;1680033;84;20958;-80
2021/07/18 01:21:34;;;;;;;18.57;16.40;;;;;;;20.81;86.69;96411.64;1686494;84;20945;-79
2021/07/18 01:23:59;;;;;;;16.60;15.00;;;;;;;20.77;86.67;96397.34;1691689;84;21283;-79
2021/07/18 01:26:25;;;;;;;22.58;20.35;;;;;;;20.78;86.80;96403.42;1700358;82;21062;-79
2021/07/18 01:28:51;;;;;;;23.22;20.80;;;;;;;20.81;87.08;96400.28;1704858;82;21038;-79
2021/07/18 01:31:17;;;;;;;24.52;20.88;;;;;;;20.86;87.28;96398.52;1708475;82;20933;-79
2021/07/18 01:33:44;;;;;;;23.83;21.25;;;;;;;20.85;87.22;96398.77;1706546;82;21079;-79
2021/07/18 01:36:10;;;;;;;23.30;20.97;;;;;;;20.84;87.25;96394.01;1707046;82;21340;-79
2021/07/18 01:38:36;;;;;;;24.25;21.45;;;;;;;20.85;87.24;96382.92;1704632;82;21015;-79
2021/07/18 01:41:01;;;;;;;24.43;21.85;;;;;;;20.88;87.30;96386.39;1706883;82;21019;-80
2021/07/18 01:43:27;;;;;;;25.17;22.55;;;;;;;20.89;87.27;96371.61;1679691;82;21231;-79
2021/07/18 01:45:53;;;;;;;24.40;21.90;;;;;;;20.91;87.38;96375.33;1705615;82;21280;-79
2021/07/18 01:48:19;;;;;;;22.55;20.32;;;;;;;20.93;87.48;96377.98;1705094;82;20956;-79
2021/07/18 01:50:44;;;;;;;23.10;20.68;;;;;;;20.95;87.31;96377.22;1711891;82;21027;-79
2021/07/18 01:53:10;;;;;;;22.52;20.23;;;;;;;20.96;87.27;96367.45;1708220;82;21018;-79
2021/07/18 01:55:36;;;;;;;23.73;21.33;;;;;;;21.01;87.38;96368.84;1706929;82;20983;-79
2021/07/18 01:58:03;;;;;;;24.43;21.82;;;;;;;21.00;87.00;96367.25;1710718;82;20964;-79
2021/07/18 02:00:28;;;;;;;24.10;21.02;;;;;;;20.98;86.94;96368.80;1705211;82;20963;-79
2021/07/18 02:02:54;;;;;;;30.10;23.45;;;;;;;21.01;87.04;96369.37;1698336;82;20971;-79
2021/07/18 02:05:20;;;;;;;23.35;20.97;;;;;;;20.96;86.96;96389.90;1701514;82;20955;-79
2021/07/18 02:07:47;;;;;;;25.23;22.30;;;;;;;20.93;86.92;96393.04;1697797;82;20927;-79
2021/07/18 02:10:16;;;;;;;23.73;21.40;;;;;;;20.90;86.76;96392.22;1702510;82;20939;-79
2021/07/18 02:12:45;;;;;;;21.77;19.57;;;;;;;20.91;86.93;96394.61;1706782;82;21312;-80
2021/07/18 02:15:12;;;;;;;22.15;19.75;;;;;;;20.94;86.98;96402.56;1707760;82;20969;-79
2021/07/18 02:17:38;;;;;;;26.73;19.92;;;;;;;20.97;86.93;96406.81;1708013;82;20953;-79
2021/07/18 02:20:12;;;;;;;22.50;20.12;;;;;;;21.01;86.81;96402.39;1706361;82;20967;-79
2021/07/18 02:22:52;;;;;;;20.00;18.00;;;;;;;21.00;86.46;96406.08;1703187;82;21317;-79
2021/07/18 02:25:25;;;;;;;17.45;15.18;;;;;;;20.95;86.31;96406.80;1678619;84;21075;-79
2021/07/18 02:27:52;;;;;;;18.30;16.20;;;;;;;20.92;86.21;96404.13;1703563;82;20975;-79
2021/07/18 02:30:20;;;;;;;17.20;15.50;;;;;;;20.87;85.95;96397.47;1706915;82;21006;-79
2021/07/18 02:32:46;;;;;;;18.05;15.98;;;;;;;20.81;85.92;96388.40;1700203;82;20997;-79
2021/07/18 02:35:14;;;;;;;19.55;16.15;;;;;;;20.76;85.93;96390.46;1707496;82;21024;-79
2021/07/18 02:37:44;;;;;;;19.20;16.42;;;;;;;20.76;86.04;96399.70;1702312;82;21049;-80
2021/07/18 02:40:11;;;;;;;18.50;16.52;;;;;;;20.75;86.15;96394.16;1702730;82;21040;-79
2021/07/18 02:42:37;;;;;;;17.80;15.85;;;;;;;20.76;85.95;96395.74;1701455;82;20945;-80
2021/07/18 02:45:05;;;;;;;19.45;16.93;;;;;;;20.72;86.16;96397.81;1702327;82;20960;-79
2021/07/18 02:47:31;;;;;;;18.50;16.30;;;;;;;20.67;86.12;96399.34;1705060;82;21003;-79
2021/07/18 02:49:57;;;;;;;17.57;15.85;;;;;;;20.63;86.00;96390.82;1697854;82;20969;-79
2021/07/18 02:52:22;;;;;;;16.52;13.78;;;;;;;20.58;85.91;96392.09;1705415;82;21048;-79
2021/07/18 02:54:50;;;;;;;16.10;14.18;;;;;;;20.56;85.92;96399.45;1676724;83;21014;-79
2021/07/18 02:57:17;;;;;;;16.93;12.43;;;;;;;20.54;85.80;96403.66;1707534;82;20937;-79
2021/07/18 02:59:42;;;;;;;15.50;13.85;;;;;;;20.51;85.95;96405.99;1700418;82;21336;-80
2021/07/18 03:02:08;;;;;;;16.20;13.68;;;;;;;20.49;86.06;96401.45;1683338;82;21008;-80
2021/07/18 03:04:34;;;;;;;15.55;13.90;;;;;;;20.48;86.08;96411.73;1703964;82;21039;-80
2021/07/18 03:07:00;;;;;;;17.45;13.98;;;;;;;20.45;86.17;96408.27;1707642;82;20948;-80
2021/07/18 03:09:26;;;;;;;15.48;12.40;;;;;;;20.43;86.21;96415.63;1703524;82;21276;-80
2021/07/18 03:11:53;;;;;;;19.60;12.65;;;;;;;20.41;86.20;96414.56;1705600;82;20975;-80
2021/07/18 03:14:19;;;;;;;13.95;11.25;;;;;;;20.41;86.26;96411.09;1701647;82;20940;-80
2021/07/18 03:16:47;;;;;;;13.83;11.00;;;;;;;20.41;86.23;96405.33;1707416;82;21047;-80
2021/07/18 03:19:13;;;;;;;14.58;10.93;;;;;;;20.43;86.21;96398.48;1706315;82;20976;-79
2021/07/18 03:21:39;;;;;;;15.58;12.10;;;;;;;20.43;86.19;96395.31;1707239;82;21061;-80
2021/07/18 03:24:05;;;;;;;17.20;13.50;;;;;;;20.43;86.17;96402.44;1707930;82;21276;-79
2021/07/18 03:26:31;;;;;;;15.70;12.50;;;;;;;20.43;86.18;96390.56;1689291;82;21018;-80
2021/07/18 03:28:57;;;;;;;16.32;12.35;;;;;;;20.42;86.31;96391.08;1697323;83;20995;-80
2021/07/18 03:31:23;;;;;;;17.40;12.63;;;;;;;20.42;86.18;96388.44;1686184;84;20934;-79
2021/07/18 03:33:49;;;;;;;13.83;11.75;;;;;;;20.43;86.21;96390.56;1693771;83;20966;-80
2021/07/18 03:36:14;;;;;;;17.02;12.30;;;;;;;20.43;86.26;96389.24;1697495;83;20939;-80
2021/07/18 03:38:40;;;;;;;16.67;11.88;;;;;;;20.44;86.42;96386.36;1693602;84;21485;-80
2021/07/18 03:41:06;;;;;;;14.83;12.30;;;;;;;20.46;86.13;96384.79;1692863;83;21027;-81
2021/07/18 03:43:31;;;;;;;15.58;12.98;;;;;;;20.46;86.09;96384.27;1688447;84;21906;-80
2021/07/18 03:45:57;;;;;;;17.73;14.55;;;;;;;20.46;86.13;96386.11;1696026;83;21242;-80
2021/07/18 03:48:23;;;;;;;17.07;14.07;;;;;;;20.42;86.28;96386.33;1698656;84;20995;-80
2021/07/18 03:50:49;;;;;;;14.87;13.35;;;;;;;20.41;86.46;96384.20;1699860;83;21018;-79
2021/07/18 03:53:16;;;;;;;16.17;14.18;;;;;;;20.44;86.53;96388.20;1693567;83;20956;-79
2021/07/18 03:55:42;;;;;;;15.28;13.45;;;;;;;20.45;86.42;96389.27;1695380;84;21022;-80
2021/07/18 03:58:08;;;;;;;18.82;14.33;;;;;;;20.47;86.47;96388.50;1687957;83;20995;-80
2021/07/18 04:00:34;;;;;;;18.17;14.78;;;;;;;20.52;86.70;96389.91;1664641;85;21340;-78
2021/07/18 04:02:59;;;;;;;18.35;16.10;;;;;;;20.58;86.69;96384.16;1664313;85;20978;-79
2021/07/18 04:05:26;;;;;;;20.90;18.12;;;;;;;20.59;86.68;96383.13;1662333;85;21300;-79
2021/07/18 04:07:52;;;;;;;23.65;16.27;;;;;;;20.59;86.65;96387.08;1662050;85;20969;-79
2021/07/18 04:10:18;;;;;;;19.98;17.20;;;;;;;20.60;86.62;96391.31;1663614;85;21006;-79
2021/07/18 04:12:43;;;;;;;19.05;15.98;;;;;;;20.60;86.70;96392.64;1691434;83;22474;-78
2021/07/18 04:15:11;;;;;;;18.17;15.58;;;;;;;20.65;86.71;96395.33;1694922;83;21004;-79
2021/07/18 04:17:37;;;;;;;19.00;15.78;;;;;;;20.71;86.71;96394.38;1688672;83;20973;-78
2021/07/18 04:20:04;;;;;;;16.95;14.75;;;;;;;20.74;86.47;96398.36;1693202;83;21042;-78
2021/07/18 04:22:30;;;;;;;17.67;14.80;;;;;;;20.72;86.48;96405.20;1699292;83;21081;-78
2021/07/18 04:24:56;;;;;;;23.47;18.45;;;;;;;20.73;86.59;96412.08;1693331;83;21062;-79
2021/07/18 04:27:22;;;;;;;27.13;21.95;;;;;;;20.70;86.57;96413.90;1711799;82;21011;-78
2021/07/18 04:29:47;;;;;;;27.62;23.15;;;;;;;20.70;86.78;96416.54;1722272;82;21274;-78
2021/07/18 04:32:13;;;;;;;24.92;22.27;;;;;;;20.71;86.78;96418.66;1720817;82;20994;-79
2021/07/18 04:34:42;;;;;;;29.30;24.00;;;;;;;20.70;86.90;96417.86;1719976;82;21263;-79
2021/07/18 04:37:07;;;;;;;29.42;23.57;;;;;;;20.72;86.79;96425.01;1721641;82;20988;-78
2021/07/18 04:39:32;;;;;;;26.50;23.05;;;;;;;20.72;86.75;96431.61;1718892;82;21033;-78
2021/07/18 04:42:00;;;;;;;29.25;24.40;;;;;;;20.68;86.69;96435.27;1719150;82;20990;-79
2021/07/18 04:44:26;;;;;;;22.30;19.82;;;;;;;20.70;87.06;96435.02;1719394;82;20899;-79
2021/07/18 04:46:54;;;;;;;27.13;21.70;;;;;;;20.78;87.18;96433.78;1723769;82;20907;-79
2021/07/18 04:49:19;;;;;;;28.83;23.98;;;;;;;20.78;87.18;96433.78;1720972;82;20948;-79
2021/07/18 04:51:45;;;;;;;26.55;21.55;;;;;;;20.78;86.82;96434.58;1724701;82;20903;-79
2021/07/18 04:54:11;;;;;;;30.77;25.50;;;;;;;20.81;86.83;96435.41;1723861;82;21284;-79
2021/07/18 04:56:37;;;;;;;31.70;24.60;;;;;;;20.84;86.70;96427.55;1721571;82;21007;-78
2021/07/18 04:59:02;;;;;;;32.70;26.95;;;;;;;20.78;86.58;96421.91;1720797;82;20943;-79
2021/07/18 05:01:28;;;;;;;38.02;29.70;;;;;;;20.83;87.09;96420.14;1719259;82;21336;-78
2021/07/18 05:03:54;;;;;;;38.88;29.77;;;;;;;20.90;87.15;96418.63;1721345;82;20978;-79
2021/07/18 05:06:20;;;;;;;34.65;27.77;;;;;;;20.91;87.10;96417.58;1718907;82;20995;-79
2021/07/18 05:08:46;;;;;;;40.30;29.42;;;;;;;20.89;87.27;96423.63;1690961;82;20895;-79
2021/07/18 05:11:11;;;;;;;41.60;32.08;;;;;;;20.89;87.26;96427.08;1722400;82;21294;-79
2021/07/18 05:13:37;;;;;;;42.17;30.32;;;;;;;20.86;87.12;96428.09;1723337;82;20947;-79
2021/07/18 05:16:03;;;;;;;42.17;31.30;;;;;;;20.78;87.22;96429.30;1726877;82;20925;-79
2021/07/18 05:18:29;;;;;;;42.35;30.92;;;;;;;20.85;87.53;96427.82;1725539;82;20936;-79
2021/07/18 05:20:55;;;;;;;38.78;31.00;;;;;;;20.90;87.55;96434.48;1719644;82;21009;-79
2021/07/18 05:23:20;;;;;;;43.28;33.75;;;;;;;20.93;87.58;96440.58;1722035;82;21275;-79
2021/07/18 05:25:46;;;;;;;44.58;33.18;;;;;;;21.00;87.73;96435.93;1717662;81;21027;-79
2021/07/18 05:28:12;;;;;;;45.05;32.75;;;;;;;21.01;87.47;96430.12;1688540;84;20981;-79
2021/07/18 05:30:38;;;;;;;42.20;33.23;;;;;;;20.97;87.73;96425.31;1722344;82;20939;-79
2021/07/18 05:33:03;;;;;;;43.80;34.33;;;;;;;21.04;87.89;96422.50;1724387;82;20999;-79
2021/07/18 05:35:29;;;;;;;45.33;32.58;;;;;;;21.06;87.79;96417.77;1720909;82;20939;-79
2021/07/18 05:37:55;;;;;;;45.65;35.25;;;;;;;21.08;87.71;96421.48;1714032;82;20916;-79
2021/07/18 05:40:20;;;;;;;45.08;34.78;;;;;;;21.04;87.41;96429.62;1698841;82;20912;-79
2021/07/18 05:42:48;;;;;;;44.38;33.83;;;;;;;20.97;87.54;96433.75;1694607;83;21007;-79
2021/07/18 05:45:14;;;;;;;42.45;35.38;;;;;;;20.97;87.74;96436.40;1713515;82;21242;-79
2021/07/18 05:47:40;;;;;;;44.73;34.83;;;;;;;21.02;88.01;96439.13;1721468;82;21149;-79
2021/07/18 05:50:08;;;;;;;42.27;34.30;;;;;;;21.08;88.05;96443.41;1713189;82;21224;-79
2021/07/18 05:52:34;;;;;;;40.88;32.75;;;;;;;21.11;87.71;96442.11;1724928;82;21297;-79
2021/07/18 05:55:00;;;;;;;42.43;32.00;;;;;;;21.13;87.31;96449.27;1723634;82;20988;-79
2021/07/18 05:57:26;;;;;;;41.73;33.33;;;;;;;21.16;87.16;96444.31;1713745;82;21020;-79
2021/07/18 05:59:52;;;;;;;38.95;31.07;;;;;;;21.17;87.03;96447.75;1723054;82;20995;-79
2021/07/18 06:02:17;;;;;;;47.48;33.30;;;;;;;21.20;87.48;96448.05;1723234;82;21004;-79
2021/07/18 06:04:43;;;;;;;39.40;32.80;;;;;;;21.24;87.40;96446.53;1727001;82;21027;-80
2021/07/18 06:07:09;;;;;;;37.00;31.57;;;;;;;21.24;87.12;96441.25;1728550;82;21316;-79
2021/07/18 06:09:35;;;;;;;42.40;33.13;;;;;;;21.28;87.13;96439.70;1686609;83;21239;-79
2021/07/18 06:12:01;;;;;;;45.15;34.50;;;;;;;21.30;87.00;96443.41;1712984;82;20917;-80
2021/07/18 06:14:26;;;;;;;47.25;37.20;;;;;;;21.31;86.56;96444.21;1720991;82;20909;-80
2021/07/18 06:16:52;;;;;;;48.92;36.30;;;;;;;21.33;86.90;96442.14;1715297;82;20971;-80
2021/07/18 06:19:18;;;;;;;48.95;36.68;;;;;;;21.41;86.90;96439.05;1720532;82;20947;-80
2021/07/18 06:21:44;;;;;;;44.45;35.58;;;;;;;21.44;86.75;96441.19;1715680;82;21388;-80
2021/07/18 06:24:10;;;;;;;46.90;36.48;;;;;;;21.45;86.78;96439.61;1713495;82;20990;-80
2021/07/18 06:26:36;;;;;;;44.08;34.45;;;;;;;21.39;86.58;96441.14;1670739;84;21077;-80
2021/07/18 06:29:02;;;;;;;47.23;36.58;;;;;;;21.38;87.17;96441.66;1707291;83;20984;-80
2021/07/18 06:31:27;;;;;;;55.35;40.15;;;;;;;21.39;87.21;96449.87;1709612;83;20945;-80
2021/07/18 06:33:53;;;;;;;51.55;41.10;;;;;;;21.41;86.84;96452.26;1705496;83;20896;-80
2021/07/18 06:36:19;;;;;;;57.83;42.95;;;;;;;21.39;86.79;96459.13;1678234;84;20929;-80
2021/07/18 06:38:45;;;;;;;63.65;46.15;;;;;;;21.39;86.86;96458.33;1702204;83;20968;-80
2021/07/18 06:41:11;;;;;;;59.88;44.58;;;;;;;21.38;86.88;96465.45;1699639;83;21308;-80
2021/07/18 06:43:37;;;;;;;58.08;44.58;;;;;;;21.37;86.91;96470.99;1703091;83;20918;-80
2021/07/18 06:46:02;;;;;;;59.10;44.60;;;;;;;21.37;86.88;96473.63;1683047;84;20947;-80
2021/07/18 06:48:28;;;;;;;42.93;34.18;;;;;;;21.37;86.86;96469.67;1683771;84;21282;-80
2021/07/18 06:50:56;;;;;;;46.77;35.98;;;;;;;21.32;86.62;96473.59;1681891;84;21042;-80
2021/07/18 06:53:23;;;;;;;42.65;33.95;;;;;;;21.28;86.96;96471.94;1688033;84;21318;-80
2021/07/18 06:55:51;;;;;;;42.73;32.53;;;;;;;21.28;87.15;96471.41;1648782;84;20984;-80
2021/07/18 06:58:17;;;;;;;38.75;32.78;;;;;;;21.28;87.08;96480.66;1687269;84;20954;-80
2021/07/18 07:00:42;;;;;;;36.77;31.68;;;;;;;21.29;87.03;96482.78;1686417;84;20990;-80
2021/07/18 07:03:08;;;;;;;33.90;29.32;;;;;;;21.28;87.21;96483.83;1674023;84;21261;-80
2021/07/18 07:05:35;;;;;;;33.28;29.70;;;;;;;21.32;87.17;96488.13;1674857;84;20927;-80
2021/07/18 07:08:02;;;;;;;34.58;30.50;;;;;;;21.36;87.05;96489.22;1704685;83;20995;-79
2021/07/18 07:10:28;;;;;;;39.00;31.82;;;;;;;21.36;87.13;96488.70;1679489;84;21213;-79
2021/07/18 07:12:54;;;;;;;37.33;30.50;;;;;;;21.37;87.23;96494.25;1677177;84;20923;-79
2021/07/18 07:15:19;;;;;;;39.00;30.45;;;;;;;21.38;87.39;96497.17;1691459;84;20973;-79
2021/07/18 07:17:45;;;;;;;36.45;31.55;;;;;;;21.30;86.92;96496.27;1688224;84;21239;-79
2021/07/18 07:20:12;;;;;;;36.38;30.57;;;;;;;21.25;86.88;96498.86;1676011;84;21042;-79
2021/07/18 07:22:38;;;;;;;39.83;33.25;;;;;;;21.18;86.73;96496.38;1685593;84;21049;-80
2021/07/18 07:25:13;;;;;;;37.75;31.90;;;;;;;21.17;87.21;96495.31;1685992;84;20942;-79
2021/07/18 07:27:39;;;;;;;41.58;33.02;;;;;;;21.23;87.34;96500.92;1713663;82;21036;-79
2021/07/18 07:30:07;;;;;;;41.77;33.45;;;;;;;21.22;87.09;96492.20;1725302;82;20918;-79
2021/07/18 07:32:33;;;;;;;37.30;30.97;;;;;;;21.28;87.36;96489.91;1725365;82;21274;-79
2021/07/18 07:34:58;;;;;;;34.03;30.30;;;;;;;21.30;86.91;96487.54;1724172;82;20889;-79
2021/07/18 07:37:24;;;;;;;37.08;31.85;;;;;;;21.30;86.91;96487.54;1725697;82;20981;-79
2021/07/18 07:39:52;;;;;;;37.33;31.25;;;;;;;21.35;86.95;96494.23;1724809;82;21024;-79
2021/07/18 07:42:19;;;;;;;35.50;30.50;;;;;;;21.33;87.16;96485.75;1644945;85;21017;-80
2021/07/18 07:44:45;;;;;;;45.43;34.88;;;;;;;21.35;87.25;96487.63;1668788;85;21255;-79
2021/07/18 07:47:11;;;;;;;43.40;36.55;;;;;;;21.33;86.76;96491.04;1684545;84;20989;-78
2021/07/18 07:49:37;;;;;;;50.70;45.40;;;;;;;21.33;87.15;96489.19;1688479;84;20934;-79
2021/07/18 07:52:04;;;;;;;40.08;33.28;;;;;;;21.37;87.15;96485.00;1684792;83;21251;-79
2021/07/18 07:54:29;;;;;;;38.15;32.75;;;;;;;21.42;87.35;96494.30;1681515;84;21026;-80
2021/07/18 07:56:55;;;;;;;39.13;31.95;;;;;;;21.47;87.27;96489.59;1682186;84;20986;-79
2021/07/18 07:59:21;;;;;;;40.08;32.73;;;;;;;21.47;86.91;96489.59;1686885;83;21336;-79
2021/07/18 08:01:46;;;;;;;38.53;32.30;;;;;;;21.43;87.09;96485.33;1688869;84;21015;-81
2021/07/18 08:04:12;;;;;;;36.45;32.33;;;;;;;21.47;86.88;96490.91;1683061;84;20972;-79
2021/07/18 08:06:38;;;;;;;39.13;34.63;;;;;;;21.49;86.98;96490.16;1681254;85;21371;-79
2021/07/18 08:09:04;;;;;;;41.28;34.98;;;;;;;21.51;86.97;96498.12;1684474;84;20955;-79
2021/07/18 08:11:30;;;;;;;37.63;30.90;;;;;;;21.53;87.08;96498.66;1676170;84;20977;-78
2021/07/18 08:13:55;;;;;;;42.98;32.98;;;;;;;21.57;87.34;96502.41;1690816;84;20961;-79
2021/07/18 08:16:21;;;;;;;35.03;30.27;;;;;;;21.59;87.05;96500.83;1683363;83;21268;-80
2021/07/18 08:18:48;;;;;;;35.63;31.07;;;;;;;21.62;87.14;96504.30;1680955;84;21010;-79
2021/07/18 08:21:14;;;;;;;34.80;29.77;;;;;;;21.65;86.96;96507.79;1682586;84;20987;-79
2021/07/18 08:23:49;;;;;;;41.25;31.25;;;;;;;21.71;87.04;96515.24;1686375;84;20907;-79
2021/07/18 08:26:11;;;;;;;35.40;30.65;;;;;;;21.73;86.98;96509.17;1680977;84;20967;-79
2021/07/18 08:28:39;;;;;;;34.20;30.55;;;;;;;21.78;86.84;96505.25;1686655;83;21698;-79
2021/07/18 08:31:05;;;;;;;34.98;31.27;;;;;;;21.81;86.84;96509.55;1731047;82;20955;-79
2021/07/18 08:33:31;;;;;;;31.68;28.17;;;;;;;21.80;86.51;96500.02;1713983;82;20988;-79
2021/07/18 08:35:57;;;;;;;31.90;27.65;;;;;;;21.80;86.63;96501.34;1709385;82;21308;-79
2021/07/18 08:38:22;;;;;;;33.88;30.48;;;;;;;21.89;87.01;96500.34;1709608;82;21028;-79
2021/07/18 08:40:50;;;;;;;31.65;28.35;;;;;;;21.97;86.73;96500.44;1705346;82;20991;-79
2021/07/18 08:43:16;;;;;;;32.35;28.85;;;;;;;22.00;86.33;96499.40;1717927;82;21245;-79
2021/07/18 08:45:43;;;;;;;34.53;30.82;;;;;;;21.98;86.29;96503.34;1679505;83;20932;-80
2021/07/18 08:48:09;;;;;;;32.85;29.50;;;;;;;22.11;86.95;96497.13;1711158;82;21842;-79
2021/07/18 08:50:35;;;;;;;34.50;30.08;;;;;;;22.29;87.17;96495.15;1709520;82;20940;-79
2021/07/18 08:53:01;;;;;;;31.25;28.02;;;;;;;22.42;86.17;96496.05;1710514;82;20935;-79
2021/07/18 08:55:26;;;;;;;32.85;29.52;;;;;;;22.43;86.06;96504.27;1717242;82;21347;-79
2021/07/18 08:57:52;;;;;;;32.00;28.57;;;;;;;22.45;86.02;96506.12;1714699;82;21506;-79
2021/07/18 09:00:20;;;;;;;33.48;29.98;;;;;;;22.47;85.99;96506.70;1706426;83;21024;-79
2021/07/18 09:02:45;;;;;;;32.05;28.60;;;;;;;22.44;85.09;96506.66;1709764;82;20892;-79
2021/07/18 09:05:11;;;;;;;34.85;30.97;;;;;;;22.34;85.25;96493.36;1709454;82;21494;-80
2021/07/18 09:07:48;;;;;;;30.52;27.37;;;;;;;22.34;85.25;96493.36;1709408;82;20945;-81
2021/07/18 09:10:17;;;;;;;29.02;25.95;;;;;;;22.40;85.34;96508.75;1709093;82;21337;-79
2021/07/18 09:12:43;;;;;;;30.02;26.95;;;;;;;22.38;85.58;96509.53;1719869;82;21051;-79
2021/07/18 09:15:10;;;;;;;30.48;27.42;;;;;;;22.43;85.68;96510.87;1678286;84;21017;-79
2021/07/18 09:17:36;;;;;;;30.88;27.70;;;;;;;22.46;85.55;96510.40;1712348;82;20988;-79
2021/07/18 09:20:15;;;;;;;31.70;28.45;;;;;;;22.44;85.45;96513.80;1712927;82;20973;-83
2021/07/18 09:22:40;;;;;;;28.80;25.45;;;;;;;22.42;85.63;96514.05;1714848;82;20964;-80
2021/07/18 09:25:07;;;;;;;31.68;28.45;;;;;;;22.40;85.93;96509.55;1689137;82;21241;-80
2021/07/18 09:27:35;;;;;;;37.08;33.08;;;;;;;22.45;86.25;96505.63;1711665;82;21023;-81
2021/07/18 09:30:12;;;;;;;31.82;28.42;;;;;;;22.50;86.00;96501.42;1712976;82;20976;-80
2021/07/18 09:32:41;;;;;;;31.48;28.07;;;;;;;22.51;85.85;96502.48;1705490;82;20990;-80
2021/07/18 09:35:13;;;;;;;35.30;31.60;;;;;;;22.44;85.67;96500.03;1707626;82;20976;-80
2021/07/18 09:37:47;;;;;;;32.88;29.32;;;;;;;22.44;85.73;96502.69;1711159;82;21257;-80
2021/07/18 09:40:16;;;;;;;31.33;27.05;;;;;;;22.41;85.79;96509.02;1677622;82;21013;-80
2021/07/18 09:42:56;;;;;;;29.80;26.80;;;;;;;22.43;86.08;96510.87;1710812;82;21033;-79
2021/07/18 09:45:31;;;;;;;29.40;26.40;;;;;;;22.46;85.97;96504.58;1717557;82;20940;-79
2021/07/18 09:48:06;;;;;;;28.47;25.62;;;;;;;22.62;86.34;96503.36;1707794;82;21383;-80
2021/07/18 09:50:41;;;;;;;26.95;24.07;;;;;;;22.64;86.02;96509.99;1688878;83;20958;-80
2021/07/18 09:53:22;;;;;;;28.98;26.17;;;;;;;22.64;84.63;96513.97;1687211;83;20964;-80
2021/07/18 09:56:10;;;;;;;28.77;26.07;;;;;;;22.57;84.65;96519.99;1715115;82;21040;-80
2021/07/18 09:58:42;;;;;;;25.65;22.87;;;;;;;22.53;84.88;96528.70;1715162;82;20988;-80
2021/07/18 10:01:14;;;;;;;25.20;22.75;;;;;;;22.49;84.91;96535.04;1722842;82;21000;-81
2021/07/18 10:03:46;;;;;;;25.20;22.70;;;;;;;22.48;85.34;96534.77;1710598;82;20932;-80
2021/07/18 10:06:14;;;;;;;24.57;21.95;;;;;;;22.50;85.60;96535.31;1690587;83;20927;-79
2021/07/18 10:08:44;;;;;;;24.30;21.80;;;;;;;22.55;85.78;96522.10;1721306;82;21251;-79
2021/07/18 10:11:12;;;;;;;23.83;21.42;;;;;;;22.69;85.86;96526.44;1724292;82;20950;-80
2021/07/18 10:13:38;;;;;;;25.52;22.95;;;;;;;22.68;85.21;96521.67;1696157;83;21418;-79
2021/07/18 10:16:08;;;;;;;25.70;23.30;;;;;;;22.72;85.70;96526.72;1697736;83;20989;-81
2021/07/18 10:18:35;;;;;;;24.65;22.10;;;;;;;22.81;85.94;96530.23;1717363;82;20945;-80
2021/07/18 10:21:02;;;;;;;22.77;20.65;;;;;;;22.88;85.98;96522.34;1710404;82;21274;-80
2021/07/18 10:23:28;;;;;;;22.90;20.52;;;;;;;22.94;85.04;96513.89;1684672;82;20996;-81
2021/07/18 10:25:53;;;;;;;24.65;22.17;;;;;;;22.96;83.73;96505.98;1710518;82;21237;-81
2021/07/18 10:28:29;;;;;;;26.55;23.73;;;;;;;23.04;83.92;96498.05;1705217;82;21292;-81
2021/07/18 10:31:19;;;;;;;24.30;21.85;;;;;;;23.20;84.74;96493.09;1701941;83;20920;-81
2021/07/18 10:33:45;;;;;;;24.18;21.68;;;;;;;23.35;84.12;96487.85;1696339;83;21280;-81
2021/07/18 10:36:12;;;;;;;22.17;19.80;;;;;;;23.63;83.85;96485.85;1676460;84;21006;-80
2021/07/18 10:38:38;;;;;;;23.27;21.17;;;;;;;23.80;82.63;96482.44;1706172;83;21338;-81
2021/07/18 10:41:04;;;;;;;24.12;21.82;;;;;;;23.85;83.30;96477.13;1700252;83;20941;-80
2021/07/18 10:43:48;;;;;;;24.05;21.65;;;;;;;23.83;83.24;96479.78;1702416;83;20958;-79
2021/07/18 10:46:16;;;;;;;23.38;20.92;;;;;;;23.84;83.75;96484.03;1698107;83;21254;-80
2021/07/18 10:48:52;;;;;;;23.70;21.07;;;;;;;23.88;83.87;96481.91;1680328;84;20941;-80
2021/07/18 10:51:23;;;;;;;22.27;20.08;;;;;;;23.88;83.07;96488.53;1700505;83;21012;-81
2021/07/18 10:53:49;;;;;;;24.52;22.07;;;;;;;23.84;83.38;96498.62;1700962;83;21021;-81
2021/07/18 10:56:20;;;;;;;25.08;22.67;;;;;;;23.71;82.55;96504.42;1701988;83;20965;-79
2021/07/18 10:58:48;;;;;;;24.67;22.17;;;;;;;23.63;82.92;96512.38;1704007;83;21023;-80
2021/07/18 11:01:32;;;;;;;26.82;24.12;;;;;;;23.55;83.25;96516.81;1701261;83;20986;-80
2021/07/18 11:03:59;;;;;;;24.85;22.35;;;;;;;23.49;83.38;96515.22;1691150;83;20975;-79
2021/07/18 11:06:33;;;;;;;25.15;22.48;;;;;;;23.50;83.75;96506.20;1701292;83;21341;-78
2021/07/18 11:09:19;;;;;;;24.40;21.97;;;;;;;23.60;84.02;96498.31;1690023;83;20956;-79
2021/07/18 11:11:49;;;;;;;21.00;18.95;;;;;;;23.71;83.81;96477.36;1710612;83;21298;-80
2021/07/18 11:14:35;;;;;;;23.83;21.33;;;;;;;23.93;84.53;96467.33;1703129;83;20949;-79
2021/07/18 11:17:10;;;;;;;24.63;22.13;;;;;;;24.18;84.56;96477.69;1702165;83;21334;-78